createdAt,value
2019-02-26T00:16:42.405Z,59.20
2019-02-26T00:23:01.600Z,60.30
2019-02-26T00:54:24.495Z,60.90
2019-02-26T00:59:51.688Z,60.60
2019-02-26T01:05:26.524Z,60.70
2019-02-26T01:08:19.802Z,60.90
2019-02-26T01:14:00.288Z,60.80
2019-02-26T01:16:34.207Z,60.60
2019-02-26T03:16:34.063Z,65.00
2019-02-26T03:19:12.042Z,65.40
2019-02-26T03:22:48.911Z,66.40
2019-02-26T03:25:09.024Z,66.50
2019-02-26T03:28:53.216Z,66.30
2019-02-26T03:32:30.638Z,66.10
2019-02-26T03:34:08.244Z,65.80
2019-02-26T03:36:35.050Z,65.70
2019-02-26T03:39:40.657Z,65.40
2019-02-26T04:19:54.953Z,66.00
2019-02-26T04:22:29.617Z,66.30
2019-02-26T04:25:04.792Z,66.80
2019-02-26T04:27:59.021Z,66.70
2019-02-26T04:30:47.195Z,66.90
2019-02-26T04:33:38.131Z,66.90
2019-02-26T04:36:20.333Z,67.60
2019-02-26T04:39:10.586Z,67.80
2019-02-26T04:42:03.618Z,67.20
2019-02-26T04:44:50.047Z,67.10
2019-02-26T04:47:19.005Z,67.70
2019-02-26T04:49:48.500Z,67.70
2019-02-26T04:52:17.532Z,67.40
2019-02-26T04:54:46.410Z,67.80
2019-02-26T04:57:15.241Z,67.40
2019-02-26T04:59:44.139Z,67.90
2019-02-26T05:02:13.099Z,67.80
2019-02-26T05:04:42.108Z,67.70
2019-02-26T05:07:13.378Z,67.80
2019-02-26T05:09:41.653Z,67.30
2019-02-26T05:12:10.413Z,67.60
2019-02-26T05:14:39.047Z,67.70
2019-02-26T05:17:07.891Z,67.70
2019-02-26T05:19:39.255Z,68.60
2019-02-26T05:22:07.098Z,69.10
2019-02-26T05:24:37.950Z,68.40
2019-02-26T05:27:15.334Z,67.90
2019-02-26T05:29:45.738Z,69.10
2019-02-26T05:32:13.349Z,68.50
2019-02-26T05:34:43.439Z,68.70
2019-02-26T05:37:13.953Z,69.00
2019-02-26T05:39:43.975Z,68.80
2019-02-26T05:42:13.073Z,69.00
2019-02-26T05:44:41.759Z,69.40
2019-02-26T05:47:10.551Z,69.30
2019-02-26T05:49:41.435Z,68.50
2019-02-26T05:52:09.702Z,69.00
2019-02-26T05:54:38.285Z,69.50
2019-02-26T05:57:10.861Z,69.10
2019-02-26T05:59:37.557Z,69.40
2019-02-26T06:02:06.140Z,68.90
2019-02-26T06:04:35.693Z,69.10
2019-02-26T06:07:05.158Z,68.50
2019-02-26T06:10:04.443Z,67.80
2019-02-26T06:18:34.358Z,69.40
2019-02-26T06:24:40.308Z,69.20
2019-02-26T06:27:00.254Z,68.60
2019-02-26T06:29:29.913Z,68.70
2019-02-26T06:32:32.234Z,68.50
2019-02-26T06:34:59.037Z,68.40
2019-02-26T06:37:29.059Z,69.00
2019-02-26T06:39:59.884Z,69.50
2019-02-26T06:42:30.644Z,69.30
2019-02-26T06:44:58.613Z,69.90
2019-02-26T06:47:29.298Z,70.70
2019-02-26T06:49:57.622Z,71.10
2019-02-26T06:52:26.260Z,70.20
2019-02-26T06:54:57.672Z,70.80
2019-02-26T06:57:25.197Z,71.50
2019-02-26T06:59:56.357Z,71.90
2019-02-26T07:02:29.020Z,71.90
2019-02-26T07:04:57.339Z,71.80
2019-02-26T07:07:26.093Z,72.20
2019-02-26T07:09:57.426Z,71.70
2019-02-26T07:12:26.555Z,71.70
2019-02-26T07:14:56.271Z,71.80
2019-02-26T07:17:26.940Z,71.90
2019-02-26T07:19:57.794Z,70.90
2019-02-26T07:22:26.489Z,70.70
2019-02-26T07:24:55.263Z,70.60
2019-02-26T07:27:23.900Z,70.80
2019-02-26T07:29:52.507Z,71.80
2019-02-26T07:32:22.225Z,71.90
2019-02-26T07:34:52.131Z,71.40
2019-02-26T07:37:20.981Z,71.30
2019-02-26T07:39:51.434Z,72.00
2019-02-26T07:42:19.943Z,71.80
2019-02-26T07:44:48.646Z,71.80
2019-02-26T07:47:17.389Z,71.30
2019-02-26T07:49:46.209Z,71.20
2019-02-26T07:52:14.929Z,71.20
2019-02-26T07:54:44.805Z,70.90
2019-02-26T07:57:15.650Z,70.30
2019-02-26T07:59:45.103Z,70.00
2019-02-26T08:02:14.864Z,69.70
2019-02-26T08:04:43.666Z,69.10
2019-02-26T08:07:12.216Z,68.60
2019-02-26T08:09:40.886Z,67.60
2019-02-26T08:12:11.259Z,66.90
2019-02-26T08:14:41.053Z,67.50
2019-02-26T08:17:10.309Z,67.30
2019-02-26T08:19:39.832Z,67.10
2019-02-26T08:22:09.487Z,66.60
2019-02-26T08:24:39.710Z,66.30
2019-02-26T08:27:09.377Z,66.30
2019-02-26T08:29:38.561Z,66.70
2019-02-26T08:43:25.839Z,65.30
2019-02-26T08:45:54.616Z,64.60
2019-02-26T08:48:24.601Z,63.30
2019-02-26T08:50:55.674Z,62.30
2019-02-26T08:53:24.850Z,61.90
2019-02-26T08:55:56.352Z,60.80
2019-02-26T08:58:25.740Z,60.20
2019-02-26T09:00:55.005Z,60.90
2019-02-26T09:03:23.735Z,60.80
2019-02-26T09:05:53.932Z,59.90
2019-02-26T09:08:22.671Z,60.60
2019-02-26T09:10:51.391Z,59.10
2019-02-26T09:13:19.948Z,59.30
2019-02-26T09:15:48.669Z,60.00
2019-02-26T09:18:20.277Z,60.20
2019-02-26T09:20:47.753Z,60.10
2019-02-26T09:23:18.811Z,59.70
2019-02-26T09:25:51.464Z,59.20
2019-02-26T09:28:16.846Z,58.90
2019-02-26T09:30:45.537Z,58.20
2019-02-26T09:33:14.257Z,57.30
2019-02-26T09:35:42.833Z,57.40
2019-02-26T09:38:12.372Z,56.10
2019-02-26T09:40:41.942Z,56.40
2019-02-26T09:43:12.322Z,55.20
2019-02-26T09:46:36.345Z,53.20
2019-02-26T09:49:04.901Z,53.60
2019-02-26T09:54:23.837Z,53.30
2019-02-26T09:56:52.557Z,52.50
2019-02-26T09:59:21.211Z,53.00
2019-02-26T10:01:49.928Z,52.80
2019-02-26T10:04:19.768Z,51.90
2019-02-26T10:06:48.925Z,51.80
2019-02-26T10:09:18.753Z,51.30
2019-02-26T10:11:49.313Z,50.90
2019-02-26T10:14:18.496Z,50.80
2019-02-26T10:16:48.952Z,49.20
2019-02-26T10:19:19.444Z,48.80
2019-02-26T10:21:47.677Z,48.00
2019-02-26T10:24:18.402Z,47.40
2019-02-26T10:26:46.509Z,47.70
2019-02-26T10:29:15.131Z,46.30
2019-02-26T10:31:43.833Z,47.70
2019-02-26T10:34:15.432Z,46.30
2019-02-26T10:36:46.286Z,45.70
2019-02-26T10:39:15.083Z,46.10
2019-02-26T10:41:44.260Z,45.40
2019-02-26T10:44:14.716Z,44.90
2019-02-26T10:46:44.540Z,44.30
2019-02-26T10:49:13.161Z,45.70
2019-02-26T10:51:42.640Z,44.10
2019-02-26T10:54:13.348Z,43.90
2019-02-26T10:56:42.596Z,44.60
2019-02-26T10:59:13.147Z,45.30
2019-02-26T11:01:42.899Z,44.20
2019-02-26T11:04:11.582Z,44.90
2019-02-26T11:06:43.751Z,44.10
2019-02-26T11:09:14.249Z,44.50
2019-02-26T11:11:42.365Z,43.30
2019-02-26T11:14:13.492Z,43.80
2019-02-26T11:16:42.452Z,42.50
2019-02-26T11:19:12.340Z,43.50
2019-02-26T11:21:41.160Z,43.20
2019-02-26T11:24:11.281Z,41.30
2019-02-26T11:26:40.951Z,41.90
2019-02-26T11:29:10.335Z,42.30
2019-02-26T11:31:44.695Z,41.30
2019-02-26T11:34:13.436Z,41.10
2019-02-26T11:36:42.148Z,41.60
2019-02-26T11:39:12.097Z,41.50
2019-02-26T11:41:40.898Z,41.40
2019-02-26T11:44:12.492Z,41.60
2019-02-26T11:46:39.994Z,40.70
2019-02-26T11:49:09.391Z,39.90
2019-02-26T11:51:41.798Z,39.90
2019-02-26T11:54:10.703Z,40.00
2019-02-26T11:56:42.575Z,39.90
2019-02-26T11:59:12.598Z,38.10
2019-02-26T12:01:42.091Z,38.60
2019-02-26T12:04:13.646Z,37.20
2019-02-26T12:06:41.260Z,38.10
2019-02-26T12:09:11.434Z,37.60
2019-02-26T12:11:40.331Z,39.20
2019-02-26T12:14:10.902Z,38.30
2019-02-26T12:16:39.422Z,36.80
2019-02-26T12:19:08.719Z,36.50
2019-02-26T12:21:38.445Z,37.00
2019-02-26T12:24:09.212Z,36.50
2019-02-26T12:26:38.846Z,35.70
2019-02-26T12:29:07.510Z,36.10
2019-02-26T12:31:38.723Z,35.60
2019-02-26T12:34:08.378Z,34.00
2019-02-26T12:36:36.854Z,34.90
2019-02-26T12:39:07.618Z,33.60
2019-02-26T12:41:38.697Z,34.00
2019-02-26T12:44:10.976Z,34.70
2019-02-26T12:46:37.032Z,34.90
2019-02-26T12:49:08.476Z,35.30
2019-02-26T12:51:36.190Z,34.90
2019-02-26T12:54:06.330Z,35.50
2019-02-26T12:56:37.363Z,34.90
2019-02-26T12:59:07.083Z,34.80
2019-02-26T13:01:36.856Z,33.50
2019-02-26T13:04:09.381Z,32.40
2019-02-26T13:06:38.304Z,33.00
2019-02-26T13:09:06.960Z,33.20
2019-02-26T13:11:35.542Z,33.70
2019-02-26T13:14:04.295Z,34.00
2019-02-26T13:16:32.840Z,34.00
2019-02-26T13:19:04.509Z,32.80
2019-02-26T13:21:31.902Z,33.30
2019-02-26T13:26:35.974Z,33.70
2019-02-26T13:29:01.062Z,33.30
2019-02-26T13:31:34.053Z,33.70
2019-02-26T13:34:00.338Z,33.30
2019-02-26T13:36:29.702Z,33.60
2019-02-26T13:38:58.284Z,32.40
2019-02-26T13:41:29.962Z,32.10
2019-02-26T13:43:57.236Z,33.00
2019-02-26T13:46:26.700Z,32.80
2019-02-26T13:48:55.408Z,32.10
2019-02-26T13:51:24.169Z,32.40
2019-02-26T13:53:52.745Z,33.40
2019-02-26T13:56:24.205Z,32.50
2019-02-26T13:58:52.963Z,30.90
2019-02-26T14:01:21.699Z,32.80
2019-02-26T14:03:50.266Z,34.10
2019-02-26T14:06:47.242Z,31.20
2019-02-26T14:09:15.966Z,30.60
2019-02-26T14:11:44.755Z,30.00
2019-02-26T14:14:13.521Z,30.20
2019-02-26T14:16:42.508Z,30.00
2019-02-26T14:19:11.222Z,30.30
2019-02-26T14:21:39.835Z,30.30
2019-02-26T14:24:08.395Z,29.90
2019-02-26T14:26:37.206Z,30.50
2019-02-26T14:29:06.009Z,29.20
2019-02-26T14:31:37.787Z,29.40
2019-02-26T14:34:06.469Z,29.00
2019-02-26T14:36:35.190Z,31.00
2019-02-26T14:39:04.768Z,31.00
2019-02-26T14:41:33.617Z,32.40
2019-02-26T14:44:02.231Z,31.30
2019-02-26T14:46:30.887Z,32.10
2019-02-26T14:48:59.508Z,32.50
2019-02-26T14:51:28.239Z,31.40
2019-02-26T14:53:56.994Z,32.00
2019-02-26T14:56:25.787Z,31.60
2019-02-26T14:58:55.230Z,32.20
2019-02-26T15:01:23.980Z,31.30
2019-02-26T15:03:52.737Z,31.60
2019-02-26T15:06:21.314Z,31.90
2019-02-26T15:08:49.953Z,32.50
2019-02-26T15:11:18.686Z,32.30
2019-02-26T15:13:47.290Z,32.90
2019-02-26T15:16:16.172Z,32.10
2019-02-26T15:18:44.857Z,30.50
2019-02-26T15:21:13.434Z,31.20
2019-02-26T15:23:42.076Z,30.80
2019-02-26T15:26:10.802Z,31.80
2019-02-26T15:28:39.814Z,31.80
2019-02-26T15:31:08.492Z,32.10
2019-02-26T15:33:42.211Z,32.50
2019-02-26T15:36:11.645Z,33.70
2019-02-26T15:38:40.307Z,32.90
2019-02-26T15:41:09.015Z,33.80
2019-02-26T15:43:37.842Z,34.20
2019-02-26T15:46:06.564Z,34.90
2019-02-26T15:48:36.456Z,35.20
2019-02-26T15:51:13.896Z,34.70
2019-02-26T15:53:35.865Z,34.20
2019-02-26T15:56:04.514Z,34.90
2019-02-26T15:58:34.168Z,35.60
2019-02-26T16:01:04.904Z,35.50
2019-02-26T16:03:33.620Z,36.70
2019-02-26T16:06:02.338Z,36.50
2019-02-26T16:08:34.604Z,38.40
2019-02-26T16:11:03.124Z,39.20
2019-02-26T16:13:31.914Z,40.70
2019-02-26T16:16:00.824Z,40.40
2019-02-26T16:18:34.124Z,41.80
2019-02-26T16:21:02.971Z,43.40
2019-02-26T16:23:31.665Z,44.00
2019-02-26T16:26:00.737Z,43.40
2019-02-26T16:28:29.492Z,43.20
2019-02-26T16:30:58.075Z,44.30
2019-02-26T16:33:26.750Z,43.90
2019-02-26T16:35:57.442Z,44.50
2019-02-26T16:38:25.778Z,44.70
2019-02-26T16:40:54.531Z,44.40
2019-02-26T16:43:23.457Z,44.10
2019-02-26T16:45:52.178Z,44.50
2019-02-26T16:48:21.578Z,44.40
2019-02-26T16:50:50.966Z,45.40
2019-02-26T16:53:20.066Z,45.60
2019-02-26T16:55:49.578Z,45.80
2019-02-26T16:58:18.395Z,46.50
2019-02-26T17:00:48.850Z,45.40
2019-02-26T17:03:17.446Z,46.60
2019-02-26T17:05:47.665Z,46.40
2019-02-26T17:08:16.660Z,47.10
2019-02-26T17:10:45.363Z,46.60
2019-02-26T17:13:14.173Z,47.10
2019-02-26T17:15:43.263Z,47.10
2019-02-26T17:18:11.983Z,46.70
2019-02-26T17:20:40.779Z,47.90
2019-02-26T17:23:09.444Z,48.40
2019-02-26T17:25:38.182Z,48.00
2019-02-26T18:26:20.579Z,52.10
2019-02-26T18:28:49.352Z,52.00
2019-02-26T18:31:26.196Z,52.10
2019-02-26T18:33:48.438Z,52.00
2019-02-26T18:36:17.122Z,51.80
2019-02-26T18:38:48.328Z,52.90
2019-02-26T18:41:16.094Z,52.70
2019-02-26T18:43:47.513Z,52.70
2019-02-26T18:46:15.242Z,52.60
2019-02-26T18:48:48.533Z,52.30
2019-02-26T18:51:14.296Z,52.70
2019-02-26T18:53:44.620Z,52.50
2019-02-26T18:56:13.470Z,52.30
2019-02-26T18:58:42.129Z,52.90
2019-02-26T19:01:10.785Z,52.50
2019-02-26T19:03:41.559Z,52.20
2019-02-26T19:06:09.787Z,52.00
2019-02-26T19:08:39.387Z,52.40
2019-02-26T19:11:08.584Z,52.40
2019-02-26T19:13:37.330Z,52.70
2019-02-26T19:16:06.034Z,52.90
2019-02-26T19:18:35.675Z,53.20
2019-02-26T19:21:04.862Z,53.20
2019-02-26T19:23:33.576Z,53.60
2019-02-26T19:26:02.190Z,53.80
2019-02-26T19:28:30.931Z,54.00
2019-02-26T19:31:01.606Z,54.40
2019-02-26T19:33:29.880Z,54.80
2019-02-26T19:35:58.568Z,54.70
2019-02-26T19:38:27.656Z,54.60
2019-02-26T19:41:02.619Z,54.70
2019-02-26T19:43:31.305Z,54.50
2019-02-26T19:46:02.155Z,54.80
2019-02-26T19:48:33.879Z,55.30
2019-02-26T19:51:01.619Z,55.20
2019-02-26T19:53:34.466Z,55.50
2019-02-26T19:56:00.730Z,55.90
2019-02-26T19:58:29.462Z,55.80
2019-02-26T20:00:58.079Z,55.80
2019-02-26T20:03:26.686Z,55.80
2019-02-26T20:05:55.399Z,56.20
2019-02-26T20:08:24.162Z,55.60
2019-02-26T20:10:54.067Z,55.70
2019-02-26T20:13:22.810Z,56.10
2019-02-26T20:15:54.698Z,56.60
2019-02-26T20:18:37.847Z,56.60
2019-02-26T20:21:19.685Z,56.80
2019-02-26T20:23:48.645Z,56.90
2019-02-26T20:26:17.299Z,57.60
2019-02-26T20:28:45.991Z,58.00
2019-02-26T20:31:14.700Z,57.60
2019-02-26T20:33:43.420Z,57.60
2019-02-26T20:36:12.094Z,57.90
2019-02-26T20:38:40.772Z,57.40
2019-02-26T20:41:09.417Z,57.30
2019-02-26T20:43:37.997Z,57.20
2019-02-26T20:46:06.809Z,57.00
2019-02-26T20:48:36.840Z,57.30
2019-02-26T20:51:05.808Z,58.00
2019-02-26T20:53:36.580Z,58.30
2019-02-26T20:56:05.094Z,58.60
2019-02-26T20:58:33.872Z,58.30
2019-02-26T21:01:02.521Z,58.30
2019-02-26T21:03:31.198Z,58.30
2019-02-26T21:05:59.881Z,58.40
2019-02-26T21:08:30.885Z,58.20
2019-02-26T21:10:59.186Z,58.50
2019-02-26T21:13:28.032Z,58.40
2019-02-26T21:15:56.713Z,58.10
2019-02-26T21:18:30.307Z,58.00
2019-02-26T21:20:57.415Z,58.50
2019-02-26T21:23:27.814Z,59.00
2019-02-26T21:25:56.674Z,59.60
2019-02-26T21:28:25.402Z,59.80
2019-02-26T21:30:54.277Z,60.00
2019-02-26T21:33:22.902Z,59.90
2019-02-26T21:35:51.934Z,59.90
2019-02-26T21:41:56.407Z,59.40
2019-02-26T21:52:17.163Z,59.90
2019-02-26T21:54:45.837Z,59.70
2019-02-26T21:57:15.407Z,59.70
2019-02-26T21:59:49.983Z,59.70
2019-02-26T22:02:18.570Z,60.20
2019-02-26T22:04:44.903Z,60.30
2019-02-26T22:07:13.615Z,60.50
2019-02-26T22:09:42.371Z,61.20
2019-02-26T22:12:11.287Z,60.30
2019-02-26T22:14:39.939Z,60.60
2019-02-26T22:17:08.620Z,60.70
2019-02-26T22:19:37.730Z,60.40
2019-02-26T22:22:07.711Z,60.90
2019-02-26T22:24:37.750Z,60.30
2019-02-26T22:27:06.725Z,61.40
2019-02-26T22:29:36.361Z,60.50
2019-02-26T22:32:05.337Z,60.30
2019-02-26T22:34:34.183Z,60.40
2019-02-26T22:37:07.081Z,60.30
2019-02-26T22:39:33.371Z,60.60
2019-02-26T22:42:02.111Z,62.10
2019-02-26T22:44:30.865Z,61.60
2019-02-26T22:46:59.663Z,61.40
2019-02-26T22:49:28.282Z,61.50
2019-02-26T22:51:58.577Z,61.60
2019-02-26T22:54:27.071Z,61.70
2019-02-26T22:56:56.910Z,61.70
2019-02-26T22:59:26.159Z,62.00
2019-02-26T23:01:56.631Z,62.10
2019-02-26T23:04:25.306Z,62.40
2019-02-26T23:06:54.109Z,61.50
2019-02-26T23:09:24.572Z,61.70
2019-02-26T23:11:53.597Z,61.50
2019-02-26T23:14:22.599Z,61.70
2019-02-26T23:16:52.163Z,61.90
2019-02-26T23:19:21.833Z,62.40
2019-02-26T23:21:50.634Z,61.90
2019-02-26T23:24:19.751Z,61.80
2019-02-26T23:26:48.511Z,61.90
2019-02-26T23:29:17.209Z,62.30
2019-02-26T23:31:46.149Z,62.20
2019-02-26T23:34:14.992Z,62.40
2019-02-26T23:36:43.788Z,62.90
2019-02-26T23:39:14.000Z,62.60
2019-02-26T23:41:42.751Z,62.90
2019-02-26T23:44:11.819Z,63.00
2019-02-26T23:46:40.584Z,62.40
2019-02-26T23:49:11.732Z,62.40
2019-02-26T23:51:39.785Z,62.90
2019-02-26T23:54:08.594Z,62.80
2019-02-26T23:56:37.373Z,62.80
2019-02-26T23:59:06.021Z,62.90
